createdAt,value
2023-05-10T00:01:20.211Z,99458.00
2023-05-10T00:06:31.494Z,99454.63
2023-05-10T00:11:35.992Z,99453.91
2023-05-10T00:16:41.977Z,99447.91
2023-05-10T00:21:47.866Z,99453.91
2023-05-10T00:26:51.990Z,99446.09
2023-05-10T00:31:56.809Z,99451.16
2023-05-10T00:37:03.112Z,99452.03
2023-05-10T00:42:07.247Z,99456.03
2023-05-10T00:47:13.052Z,99452.47
2023-05-10T00:52:18.916Z,99453.16
2023-05-10T00:57:23.621Z,99450.38
2023-05-10T01:02:28.566Z,99449.28
2023-05-10T01:07:36.219Z,99441.19
2023-05-10T01:12:43.892Z,99441.72
2023-05-10T01:17:51.101Z,99453.91
2023-05-10T01:23:22.856Z,99451.94
2023-05-10T01:29:08.959Z,99450.22
2023-05-10T01:34:21.967Z,99443.34
2023-05-10T01:39:31.549Z,99449.56
2023-05-10T01:44:40.408Z,99446.03
2023-05-10T01:49:51.233Z,99449.38
2023-05-10T01:55:02.865Z,99443.34
2023-05-10T02:00:11.879Z,99442.50
2023-05-10T02:05:23.061Z,99443.56
2023-05-10T02:10:27.869Z,99431.69
2023-05-10T02:15:33.424Z,99436.50
2023-05-10T02:20:41.212Z,99432.81
2023-05-10T02:25:47.880Z,99442.13
2023-05-10T02:30:52.637Z,99441.31
2023-05-10T02:36:00.646Z,99441.06
2023-05-10T02:41:07.475Z,99437.78
2023-05-10T02:46:11.901Z,99436.72
2023-05-10T02:51:22.082Z,99429.63
2023-05-10T02:56:31.464Z,99445.03
2023-05-10T03:01:36.286Z,99441.13
2023-05-10T03:06:42.510Z,99442.00
2023-05-10T03:11:57.283Z,99443.78
2023-05-10T03:17:08.744Z,99443.69
2023-05-10T03:22:21.080Z,99442.72
2023-05-10T03:27:26.492Z,99452.53
2023-05-10T03:32:34.055Z,99446.53
2023-05-10T03:37:40.768Z,99452.25
2023-05-10T03:42:44.900Z,99448.00
2023-05-10T03:47:49.240Z,99456.03
2023-05-10T03:52:56.352Z,99462.34
2023-05-10T03:58:00.590Z,99455.84
2023-05-10T04:03:04.925Z,99464.78
2023-05-10T04:08:10.459Z,99458.00
2023-05-10T04:13:14.965Z,99459.94
2023-05-10T04:18:19.456Z,99467.97
2023-05-10T04:23:24.970Z,99462.16
2023-05-10T04:28:29.200Z,99461.59
2023-05-10T04:33:34.635Z,99461.78
2023-05-10T04:38:40.593Z,99461.31
2023-05-10T04:43:44.926Z,99462.50
2023-05-10T04:48:49.892Z,99468.81
2023-05-10T04:54:05.424Z,99462.13
2023-05-10T04:59:10.772Z,99460.69
2023-05-10T05:04:15.702Z,99467.06
2023-05-10T05:09:20.991Z,99466.38
2023-05-10T05:14:26.342Z,99461.28
2023-05-10T05:19:30.583Z,99463.28
2023-05-10T05:24:39.932Z,99461.59
2023-05-10T05:29:44.000Z,99454.75
2023-05-10T05:34:48.245Z,99456.53
2023-05-10T05:39:55.689Z,99456.56
2023-05-10T05:45:00.930Z,99460.94
2023-05-10T05:50:05.352Z,99452.19
2023-05-10T05:55:12.223Z,99458.31
2023-05-10T06:00:17.314Z,99466.91
2023-05-10T06:05:23.815Z,99461.72
2023-05-10T06:10:29.921Z,99464.31
2023-05-10T06:15:35.850Z,99472.22
2023-05-10T06:20:41.477Z,99459.91
2023-05-10T06:25:47.241Z,99462.31
2023-05-10T06:30:51.782Z,99457.75
2023-05-10T06:35:57.022Z,99455.94
2023-05-10T06:41:03.148Z,99463.50
2023-05-10T06:46:07.890Z,99463.84
2023-05-10T06:51:13.253Z,99476.81
2023-05-10T06:56:22.786Z,99470.16
2023-05-10T07:01:31.161Z,99469.50
2023-05-10T07:06:36.497Z,99461.66
2023-05-10T07:11:54.557Z,99463.72
2023-05-10T07:17:13.398Z,99460.91
2023-05-10T07:22:23.219Z,99471.44
2023-05-10T07:27:34.462Z,99472.22
2023-05-10T07:32:43.320Z,99471.81
2023-05-10T07:37:59.353Z,99470.88
2023-05-10T07:43:07.945Z,99470.47
2023-05-10T07:48:15.274Z,99472.88
2023-05-10T07:53:21.396Z,99479.25
2023-05-10T07:58:30.525Z,99479.25
2023-05-10T08:03:43.540Z,99478.97
2023-05-10T08:08:52.054Z,99466.03
2023-05-10T08:14:02.234Z,99474.81
2023-05-10T08:19:08.292Z,99472.66
2023-05-10T08:24:17.440Z,99469.97
2023-05-10T08:29:28.541Z,99465.81
2023-05-10T08:34:36.727Z,99471.72
2023-05-10T08:39:42.603Z,99467.50
2023-05-10T08:44:55.682Z,99464.88
2023-05-10T08:50:01.461Z,99465.41
2023-05-10T08:55:06.737Z,99475.22
2023-05-10T09:00:19.289Z,99470.91
2023-05-10T09:05:25.042Z,99478.66
2023-05-10T09:10:30.845Z,99464.38
2023-05-10T09:15:38.114Z,99461.72
2023-05-10T09:20:45.416Z,99461.72
2023-05-10T09:25:51.177Z,99461.75
2023-05-10T09:31:06.512Z,99461.38
2023-05-10T09:36:18.689Z,99467.09
2023-05-10T09:41:26.247Z,99460.38
2023-05-10T09:46:33.065Z,99458.50
2023-05-10T09:51:39.107Z,99462.09
2023-05-10T09:56:43.675Z,99464.34
2023-05-10T10:01:56.482Z,99448.31
2023-05-10T10:07:07.381Z,99444.75
2023-05-10T10:12:14.026Z,99452.00
2023-05-10T10:17:25.152Z,99457.84
2023-05-10T10:22:29.835Z,99448.16
2023-05-10T10:27:45.844Z,99449.03
2023-05-10T10:33:16.607Z,99445.81
2023-05-10T10:38:24.730Z,99444.56
2023-05-10T10:43:30.765Z,99439.50
2023-05-10T10:48:36.577Z,99444.97
2023-05-10T10:53:42.392Z,99437.09
2023-05-10T10:58:54.826Z,99454.06
2023-05-10T11:04:29.196Z,99445.19
2023-05-10T11:09:42.707Z,99434.34
2023-05-10T11:14:53.931Z,99435.53
2023-05-10T11:20:20.565Z,99424.75
2023-05-10T11:25:31.407Z,99429.19
2023-05-10T11:31:04.264Z,99435.66
2023-05-10T11:36:15.794Z,99419.94
2023-05-10T11:41:33.394Z,99439.69
2023-05-10T11:46:47.666Z,99417.38
2023-05-10T11:52:09.248Z,99416.16
2023-05-10T11:57:14.456Z,99416.00
2023-05-10T12:02:20.152Z,99418.13
2023-05-10T12:07:30.004Z,99421.88
2023-05-10T12:12:43.995Z,99409.41
2023-05-10T12:17:49.243Z,99412.28
2023-05-10T12:23:00.489Z,99420.75
2023-05-10T12:28:08.657Z,99426.97
2023-05-10T12:33:18.217Z,99402.81
2023-05-10T12:38:32.890Z,99409.06
2023-05-10T12:43:41.148Z,99415.13
2023-05-10T12:48:47.437Z,99410.97
2023-05-10T12:53:53.471Z,99390.06
2023-05-10T12:58:57.908Z,99403.56
2023-05-10T13:04:02.952Z,99401.34
2023-05-10T13:10:05.950Z,99390.88
2023-05-10T13:22:09.837Z,99386.13
2023-05-10T13:28:09.670Z,99371.84
2023-05-10T13:33:40.756Z,99374.50
2023-05-10T13:38:47.944Z,99377.31
2023-05-10T13:44:28.907Z,99371.50
2023-05-10T13:49:57.080Z,99373.44
2023-05-10T13:56:15.839Z,99375.53
2023-05-10T14:15:47.245Z,99381.28
2023-05-10T14:20:52.169Z,99380.78
2023-05-10T14:25:55.741Z,99383.69
2023-05-10T14:31:00.005Z,99390.19
2023-05-10T14:36:05.700Z,99390.31
2023-05-10T14:41:11.729Z,99389.09
2023-05-10T14:46:15.692Z,99390.16
2023-05-10T14:51:22.859Z,99385.53
2023-05-10T14:56:26.942Z,99393.78
2023-05-10T15:01:30.707Z,99384.22
2023-05-10T15:06:37.009Z,99391.94
2023-05-10T15:11:40.507Z,99384.28
2023-05-10T15:16:43.932Z,99384.94
2023-05-10T15:21:49.144Z,99383.78
2023-05-10T15:26:52.973Z,99386.84
2023-05-10T15:31:56.420Z,99387.78
2023-05-10T15:37:01.414Z,99381.72
2023-05-10T15:42:05.252Z,99387.06
2023-05-10T15:47:08.837Z,99392.31
2023-05-10T15:52:14.005Z,99393.47
2023-05-10T15:57:17.925Z,99397.06
2023-05-10T16:02:22.698Z,99398.34
2023-05-10T16:07:27.935Z,99402.06
2023-05-10T16:12:32.162Z,99408.44
2023-05-10T16:17:37.462Z,99411.97
2023-05-10T16:22:44.418Z,99411.31
2023-05-10T16:27:48.015Z,99422.66
2023-05-10T16:32:51.573Z,99428.06
2023-05-10T16:37:56.742Z,99424.75
2023-05-10T16:43:00.178Z,99428.22
2023-05-10T16:48:03.921Z,99431.75
2023-05-10T16:53:08.868Z,99436.19
2023-05-10T16:58:12.810Z,99435.41
2023-05-10T17:03:16.947Z,99443.28
2023-05-10T17:08:23.220Z,99444.28
2023-05-10T17:13:26.666Z,99441.69
2023-05-10T17:18:30.227Z,99453.06
2023-05-10T17:23:35.092Z,99452.22
2023-05-10T17:28:40.682Z,99449.59
2023-05-10T17:33:44.097Z,99463.53
2023-05-10T17:38:49.602Z,99466.16
2023-05-10T17:43:54.881Z,99474.84
2023-05-10T17:48:58.821Z,99480.09
2023-05-10T17:54:03.783Z,99485.28
2023-05-10T17:59:07.591Z,99493.09
2023-05-10T18:04:11.297Z,99499.97
2023-05-10T18:09:17.959Z,99501.72
2023-05-10T18:14:35.977Z,99505.16
2023-05-10T18:19:43.146Z,99512.09
2023-05-10T18:25:03.398Z,99513.72
2023-05-10T18:30:10.329Z,99518.06
2023-05-10T18:35:14.094Z,99521.50
2023-05-10T18:40:19.699Z,99519.75
2023-05-10T18:45:24.044Z,99530.00
2023-05-10T18:50:27.588Z,99534.34
2023-05-10T18:55:32.525Z,99538.59
2023-05-10T19:00:35.989Z,99535.97
2023-05-10T19:05:39.459Z,99538.59
2023-05-10T19:10:44.414Z,99539.38
2023-05-10T19:15:48.597Z,99531.53
2023-05-10T19:20:56.486Z,99540.28
2023-05-10T19:26:01.682Z,99544.47
2023-05-10T19:31:06.302Z,99540.19
2023-05-10T19:36:10.118Z,99540.84
2023-05-10T19:41:15.184Z,99540.78
2023-05-10T19:46:20.134Z,99538.16
2023-05-10T19:51:23.875Z,99542.38
2023-05-10T19:56:29.686Z,99545.09
2023-05-10T20:01:33.186Z,99547.66
2023-05-10T20:06:36.746Z,99548.53
2023-05-10T20:11:41.879Z,99537.09
2023-05-10T20:16:45.855Z,99532.75
2023-05-10T20:21:49.414Z,99536.03
2023-05-10T20:26:54.657Z,99524.69
2023-05-10T20:31:58.241Z,99521.25
2023-05-10T20:37:02.042Z,99521.63
2023-05-10T20:42:07.980Z,99525.81
2023-05-10T20:47:11.647Z,99529.19
2023-05-10T20:52:15.596Z,99522.34
2023-05-10T20:57:21.176Z,99518.88
2023-05-10T21:02:25.061Z,99514.50
2023-05-10T21:07:28.508Z,99494.94
2023-05-10T21:12:33.447Z,99503.59
2023-05-10T21:17:37.092Z,99510.25
2023-05-10T21:22:40.496Z,99508.22
2023-05-10T21:27:46.008Z,99508.19
2023-05-10T21:32:49.495Z,99515.25
2023-05-10T21:37:53.017Z,99511.06
2023-05-10T21:42:57.984Z,99510.13
2023-05-10T21:48:01.789Z,99507.97
2023-05-10T21:53:05.668Z,99504.75
2023-05-10T21:58:11.052Z,99506.34
2023-05-10T22:03:14.904Z,99509.03
2023-05-10T22:08:18.491Z,99510.81
2023-05-10T22:13:23.318Z,99507.34
2023-05-10T22:18:26.887Z,99499.44
2023-05-10T22:23:30.355Z,99501.78
2023-05-10T22:28:35.214Z,99506.06
2023-05-10T22:33:38.733Z,99496.56
2023-05-10T22:38:43.492Z,99502.50
2023-05-10T22:43:48.673Z,99495.56
2023-05-10T22:48:52.537Z,99498.78
2023-05-10T22:53:56.014Z,99497.91
2023-05-10T22:59:01.282Z,99501.09
2023-05-10T23:04:05.056Z,99495.38
2023-05-10T23:09:09.078Z,99494.28
2023-05-10T23:14:14.302Z,99497.91
2023-05-10T23:19:17.759Z,99500.44
2023-05-10T23:24:21.237Z,99490.16
2023-05-10T23:29:26.744Z,99487.84
2023-05-10T23:34:30.181Z,99474.09
2023-05-10T23:39:34.051Z,99487.63
2023-05-10T23:44:38.867Z,99485.31
2023-05-10T23:49:43.148Z,99492.13
2023-05-10T23:54:46.905Z,99493.72
2023-05-10T23:59:51.873Z,99485.94
